Terminal Aerodrome Forecast
Issued by NWS Wichita, KS

Home | Current Version | Previous Version | Text Only | Print | Product List | Glossary On
Versions: 1 2 3 4 5 6 7 8 9 10 11 12 13 14 15 16 17 18
000
FTUS43 KICT 241700
TAFICT
TAF
KICT 241725Z 2418/2518 20012KT P6SM SCT250
     FM250000 21006KT P6SM FEW250
     FM251000 VRB03KT 4SM BR FEW250
     FM251500 08008KT P6SM FEW250=

USA.gov is the U.S. government's official web portal to all federal, state and local government web resources and services.